aviador You're here:

KMKO Decoded Metar

MUSKOGEE in OK, USA
Report Time2017-07-25 19:53:00
UTC Time2017-07-25 20:35:12
Flight Rules vfr VFR
Wind180° at 08 kt
W.Decomp.*RWY 18: 8.0 kt HW 0.8 kt LCW
RWY 13: 5.8 kt HW 5.6 kt RCW
RWY 22: 5.6 kt HW 5.8 kt LCW
W.Rank180° ranks 5
Current wind is below 180° avg. (8.7)
Visibility9999 m
Phenomena:N/A
Clouds:Few 049 Hf
Expected CloudBase > 4,000 ft AGL from Temp-Dew spread
CeilingNone
Temp34°C (ISA +20)
Dew Point24°C (56% RH)
Heat Index40.6°C
QNH1018 hPa
Density Alt3,130 ft
Elevation607 ft
Report Wrong Elevation
Raw Report
KMKO 251953Z AUTO 18008KT 10SM FEW049 34/24 A3006 RMK AO2 SLP170
T03390239=

Extra information for KMKO:More info

Metar Taf Metar & Taf Last 4 Metars F.Rules Stats Wind Profile Meteogram Temp Stats Airport Information Weather charts Add Link Nearby VenuesMetar ALERT Operation Metar Decoded Social comments

AIRNAV info for KMKO